sensor_id;sensor_type;location;lat;lon;timestamp;P1;durP1;ratioP1;P2;durP2;ratioP2
11921;SDS011;6021;51.182;3.160;2023-07-22T00:01:20;16.23;;;12.53;;
11921;SDS011;6021;51.182;3.160;2023-07-22T00:03:49;16.30;;;12.30;;
11921;SDS011;6021;51.182;3.160;2023-07-22T00:06:17;14.07;;;11.63;;
11921;SDS011;6021;51.182;3.160;2023-07-22T00:08:46;15.80;;;12.43;;
11921;SDS011;6021;51.182;3.160;2023-07-22T00:11:15;13.90;;;12.30;;
11921;SDS011;6021;51.182;3.160;2023-07-22T00:13:43;18.17;;;13.00;;
11921;SDS011;6021;51.182;3.160;2023-07-22T00:16:11;14.47;;;11.73;;
11921;SDS011;6021;51.182;3.160;2023-07-22T00:18:40;14.93;;;12.60;;
11921;SDS011;6021;51.182;3.160;2023-07-22T00:21:08;14.10;;;11.70;;
11921;SDS011;6021;51.182;3.160;2023-07-22T00:23:37;16.50;;;12.93;;
11921;SDS011;6021;51.182;3.160;2023-07-22T00:26:05;13.73;;;11.10;;
11921;SDS011;6021;51.182;3.160;2023-07-22T00:28:33;16.07;;;12.87;;
11921;SDS011;6021;51.182;3.160;2023-07-22T00:31:02;13.87;;;12.43;;
11921;SDS011;6021;51.182;3.160;2023-07-22T00:33:31;16.40;;;13.10;;
11921;SDS011;6021;51.182;3.160;2023-07-22T00:35:59;15.30;;;12.37;;
11921;SDS011;6021;51.182;3.160;2023-07-22T00:38:27;16.33;;;12.63;;
11921;SDS011;6021;51.182;3.160;2023-07-22T00:40:56;17.10;;;12.70;;
11921;SDS011;6021;51.182;3.160;2023-07-22T00:43:24;15.07;;;11.50;;
11921;SDS011;6021;51.182;3.160;2023-07-22T00:45:52;16.80;;;13.03;;
11921;SDS011;6021;51.182;3.160;2023-07-22T00:48:21;14.07;;;12.40;;
11921;SDS011;6021;51.182;3.160;2023-07-22T00:50:50;15.17;;;12.87;;
11921;SDS011;6021;51.182;3.160;2023-07-22T00:53:19;14.73;;;12.20;;
11921;SDS011;6021;51.182;3.160;2023-07-22T00:55:47;18.63;;;12.80;;
11921;SDS011;6021;51.182;3.160;2023-07-22T00:58:15;17.40;;;12.97;;
11921;SDS011;6021;51.182;3.160;2023-07-22T01:00:44;20.93;;;13.60;;
11921;SDS011;6021;51.182;3.160;2023-07-22T01:03:13;17.13;;;12.50;;
11921;SDS011;6021;51.182;3.160;2023-07-22T01:05:41;18.77;;;13.77;;
11921;SDS011;6021;51.182;3.160;2023-07-22T01:08:10;16.33;;;13.53;;
11921;SDS011;6021;51.182;3.160;2023-07-22T01:10:38;16.20;;;14.10;;
11921;SDS011;6021;51.182;3.160;2023-07-22T01:13:08;16.03;;;13.13;;
11921;SDS011;6021;51.182;3.160;2023-07-22T01:15:37;16.63;;;13.47;;
11921;SDS011;6021;51.182;3.160;2023-07-22T01:18:07;16.27;;;13.90;;
11921;SDS011;6021;51.182;3.160;2023-07-22T01:20:35;17.53;;;14.43;;
11921;SDS011;6021;51.182;3.160;2023-07-22T01:23:04;19.63;;;14.93;;
11921;SDS011;6021;51.182;3.160;2023-07-22T01:25:33;18.90;;;15.47;;
11921;SDS011;6021;51.182;3.160;2023-07-22T01:28:01;15.47;;;13.17;;
11921;SDS011;6021;51.182;3.160;2023-07-22T01:30:30;20.50;;;14.37;;
11921;SDS011;6021;51.182;3.160;2023-07-22T01:32:58;19.20;;;14.10;;
11921;SDS011;6021;51.182;3.160;2023-07-22T01:35:26;16.37;;;13.90;;
11921;SDS011;6021;51.182;3.160;2023-07-22T01:37:55;20.83;;;14.53;;
11921;SDS011;6021;51.182;3.160;2023-07-22T01:40:24;17.90;;;13.93;;
11921;SDS011;6021;51.182;3.160;2023-07-22T01:42:53;18.37;;;14.10;;
11921;SDS011;6021;51.182;3.160;2023-07-22T01:45:21;17.50;;;13.63;;
11921;SDS011;6021;51.182;3.160;2023-07-22T01:47:49;20.97;;;14.73;;
11921;SDS011;6021;51.182;3.160;2023-07-22T01:50:18;18.97;;;14.33;;
11921;SDS011;6021;51.182;3.160;2023-07-22T01:52:46;18.90;;;15.63;;
11921;SDS011;6021;51.182;3.160;2023-07-22T01:55:15;20.43;;;15.33;;
11921;SDS011;6021;51.182;3.160;2023-07-22T01:57:43;19.27;;;14.60;;
11921;SDS011;6021;51.182;3.160;2023-07-22T02:00:11;21.93;;;15.63;;
11921;SDS011;6021;51.182;3.160;2023-07-22T02:02:41;20.20;;;15.90;;
11921;SDS011;6021;51.182;3.160;2023-07-22T02:05:10;20.30;;;16.57;;
11921;SDS011;6021;51.182;3.160;2023-07-22T02:07:39;23.13;;;16.67;;
11921;SDS011;6021;51.182;3.160;2023-07-22T02:10:07;24.27;;;16.63;;
11921;SDS011;6021;51.182;3.160;2023-07-22T02:12:37;22.67;;;15.97;;
11921;SDS011;6021;51.182;3.160;2023-07-22T02:15:06;22.03;;;16.80;;
11921;SDS011;6021;51.182;3.160;2023-07-22T02:17:35;21.33;;;16.63;;
11921;SDS011;6021;51.182;3.160;2023-07-22T02:20:03;21.30;;;16.30;;
11921;SDS011;6021;51.182;3.160;2023-07-22T02:22:32;22.23;;;16.67;;
11921;SDS011;6021;51.182;3.160;2023-07-22T02:25:01;20.50;;;15.93;;
11921;SDS011;6021;51.182;3.160;2023-07-22T02:27:29;18.17;;;15.03;;
11921;SDS011;6021;51.182;3.160;2023-07-22T02:29:58;21.43;;;15.70;;
11921;SDS011;6021;51.182;3.160;2023-07-22T02:32:26;20.60;;;15.20;;
11921;SDS011;6021;51.182;3.160;2023-07-22T02:34:55;22.87;;;15.50;;
11921;SDS011;6021;51.182;3.160;2023-07-22T02:37:24;20.37;;;15.30;;
11921;SDS011;6021;51.182;3.160;2023-07-22T02:39:53;20.80;;;15.03;;
11921;SDS011;6021;51.182;3.160;2023-07-22T02:42:22;20.67;;;15.27;;
11921;SDS011;6021;51.182;3.160;2023-07-22T02:44:50;22.00;;;15.70;;
11921;SDS011;6021;51.182;3.160;2023-07-22T02:47:19;20.80;;;16.33;;
11921;SDS011;6021;51.182;3.160;2023-07-22T02:49:47;23.53;;;16.13;;
11921;SDS011;6021;51.182;3.160;2023-07-22T02:52:16;22.77;;;16.23;;
11921;SDS011;6021;51.182;3.160;2023-07-22T02:54:54;21.13;;;15.17;;
11921;SDS011;6021;51.182;3.160;2023-07-22T02:57:16;21.93;;;15.83;;
11921;SDS011;6021;51.182;3.160;2023-07-22T02:59:44;21.00;;;15.70;;
11921;SDS011;6021;51.182;3.160;2023-07-22T03:02:12;23.03;;;15.97;;
11921;SDS011;6021;51.182;3.160;2023-07-22T03:04:41;23.67;;;15.57;;
11921;SDS011;6021;51.182;3.160;2023-07-22T03:07:10;23.60;;;16.17;;
11921;SDS011;6021;51.182;3.160;2023-07-22T03:09:38;23.13;;;15.80;;
11921;SDS011;6021;51.182;3.160;2023-07-22T03:12:06;25.73;;;16.07;;
11921;SDS011;6021;51.182;3.160;2023-07-22T03:14:35;22.80;;;15.87;;
11921;SDS011;6021;51.182;3.160;2023-07-22T03:17:04;18.83;;;14.00;;
11921;SDS011;6021;51.182;3.160;2023-07-22T03:19:32;20.40;;;15.03;;
11921;SDS011;6021;51.182;3.160;2023-07-22T03:22:01;20.33;;;14.57;;
11921;SDS011;6021;51.182;3.160;2023-07-22T03:24:29;20.13;;;14.43;;
11921;SDS011;6021;51.182;3.160;2023-07-22T03:26:58;15.30;;;12.93;;
11921;SDS011;6021;51.182;3.160;2023-07-22T03:29:26;21.43;;;14.40;;
11921;SDS011;6021;51.182;3.160;2023-07-22T03:31:55;21.83;;;14.27;;
11921;SDS011;6021;51.182;3.160;2023-07-22T03:34:24;16.73;;;13.47;;
11921;SDS011;6021;51.182;3.160;2023-07-22T03:36:52;17.77;;;14.13;;
11921;SDS011;6021;51.182;3.160;2023-07-22T03:39:20;19.77;;;13.97;;
11921;SDS011;6021;51.182;3.160;2023-07-22T03:41:49;19.33;;;13.37;;
11921;SDS011;6021;51.182;3.160;2023-07-22T03:44:17;17.43;;;12.97;;
11921;SDS011;6021;51.182;3.160;2023-07-22T03:46:46;20.23;;;13.37;;
11921;SDS011;6021;51.182;3.160;2023-07-22T03:49:14;19.23;;;13.50;;
11921;SDS011;6021;51.182;3.160;2023-07-22T03:51:42;19.47;;;12.73;;
11921;SDS011;6021;51.182;3.160;2023-07-22T03:54:10;20.60;;;12.87;;
11921;SDS011;6021;51.182;3.160;2023-07-22T03:56:39;17.13;;;11.63;;
11921;SDS011;6021;51.182;3.160;2023-07-22T03:59:08;17.03;;;12.07;;
11921;SDS011;6021;51.182;3.160;2023-07-22T04:01:36;18.70;;;12.57;;
11921;SDS011;6021;51.182;3.160;2023-07-22T04:04:05;13.73;;;11.17;;
11921;SDS011;6021;51.182;3.160;2023-07-22T04:06:33;16.90;;;11.50;;
11921;SDS011;6021;51.182;3.160;2023-07-22T04:09:02;15.30;;;10.97;;
11921;SDS011;6021;51.182;3.160;2023-07-22T04:11:30;16.07;;;11.53;;
11921;SDS011;6021;51.182;3.160;2023-07-22T04:13:58;13.77;;;10.53;;
11921;SDS011;6021;51.182;3.160;2023-07-22T04:16:27;17.47;;;11.80;;
11921;SDS011;6021;51.182;3.160;2023-07-22T04:18:55;17.77;;;11.80;;
11921;SDS011;6021;51.182;3.160;2023-07-22T04:21:24;19.00;;;12.67;;
11921;SDS011;6021;51.182;3.160;2023-07-22T04:23:54;18.77;;;12.50;;
11921;SDS011;6021;51.182;3.160;2023-07-22T04:26:22;16.63;;;12.03;;
11921;SDS011;6021;51.182;3.160;2023-07-22T04:28:51;16.47;;;11.57;;
11921;SDS011;6021;51.182;3.160;2023-07-22T04:31:19;17.00;;;11.47;;
11921;SDS011;6021;51.182;3.160;2023-07-22T04:33:48;18.27;;;12.13;;
11921;SDS011;6021;51.182;3.160;2023-07-22T04:36:16;17.17;;;11.40;;
11921;SDS011;6021;51.182;3.160;2023-07-22T04:38:44;16.30;;;11.93;;
11921;SDS011;6021;51.182;3.160;2023-07-22T04:41:13;18.50;;;12.40;;
11921;SDS011;6021;51.182;3.160;2023-07-22T04:43:41;19.03;;;12.27;;
11921;SDS011;6021;51.182;3.160;2023-07-22T04:46:10;18.80;;;12.30;;
11921;SDS011;6021;51.182;3.160;2023-07-22T04:48:38;18.67;;;13.07;;
11921;SDS011;6021;51.182;3.160;2023-07-22T04:51:07;20.53;;;12.97;;
11921;SDS011;6021;51.182;3.160;2023-07-22T04:53:35;19.30;;;11.93;;
11921;SDS011;6021;51.182;3.160;2023-07-22T04:56:03;15.77;;;11.50;;
11921;SDS011;6021;51.182;3.160;2023-07-22T04:58:32;17.57;;;11.33;;
11921;SDS011;6021;51.182;3.160;2023-07-22T05:01:00;14.40;;;10.57;;
11921;SDS011;6021;51.182;3.160;2023-07-22T05:03:30;13.90;;;10.20;;
11921;SDS011;6021;51.182;3.160;2023-07-22T05:05:58;17.80;;;11.50;;
11921;SDS011;6021;51.182;3.160;2023-07-22T05:08:28;14.67;;;10.63;;
11921;SDS011;6021;51.182;3.160;2023-07-22T05:10:56;12.47;;;9.20;;
11921;SDS011;6021;51.182;3.160;2023-07-22T05:13:24;14.53;;;10.07;;
11921;SDS011;6021;51.182;3.160;2023-07-22T05:15:53;12.90;;;9.47;;
11921;SDS011;6021;51.182;3.160;2023-07-22T05:18:21;14.23;;;9.70;;
11921;SDS011;6021;51.182;3.160;2023-07-22T05:20:50;12.83;;;9.33;;
11921;SDS011;6021;51.182;3.160;2023-07-22T05:23:18;13.60;;;9.23;;
11921;SDS011;6021;51.182;3.160;2023-07-22T05:25:53;10.90;;;8.77;;
11921;SDS011;6021;51.182;3.160;2023-07-22T05:28:21;13.80;;;9.50;;
11921;SDS011;6021;51.182;3.160;2023-07-22T05:30:49;16.00;;;9.40;;
11921;SDS011;6021;51.182;3.160;2023-07-22T05:33:18;13.07;;;8.97;;
11921;SDS011;6021;51.182;3.160;2023-07-22T05:35:46;12.40;;;8.97;;
11921;SDS011;6021;51.182;3.160;2023-07-22T05:38:15;12.80;;;8.87;;
11921;SDS011;6021;51.182;3.160;2023-07-22T05:40:43;11.97;;;8.57;;
11921;SDS011;6021;51.182;3.160;2023-07-22T05:43:12;14.27;;;8.93;;
11921;SDS011;6021;51.182;3.160;2023-07-22T05:45:40;14.43;;;9.57;;
11921;SDS011;6021;51.182;3.160;2023-07-22T05:48:09;13.30;;;9.10;;
11921;SDS011;6021;51.182;3.160;2023-07-22T05:50:37;13.70;;;8.97;;
11921;SDS011;6021;51.182;3.160;2023-07-22T05:53:05;12.27;;;8.33;;
11921;SDS011;6021;51.182;3.160;2023-07-22T05:55:34;13.73;;;8.53;;
11921;SDS011;6021;51.182;3.160;2023-07-22T05:58:03;11.03;;;7.60;;
11921;SDS011;6021;51.182;3.160;2023-07-22T06:00:34;12.17;;;7.53;;
11921;SDS011;6021;51.182;3.160;2023-07-22T06:03:04;11.47;;;7.40;;
11921;SDS011;6021;51.182;3.160;2023-07-22T06:05:32;12.07;;;7.70;;
11921;SDS011;6021;51.182;3.160;2023-07-22T06:08:01;12.57;;;8.30;;
11921;SDS011;6021;51.182;3.160;2023-07-22T06:10:29;11.37;;;7.57;;
11921;SDS011;6021;51.182;3.160;2023-07-22T06:12:58;15.07;;;7.60;;
11921;SDS011;6021;51.182;3.160;2023-07-22T06:15:26;10.20;;;7.03;;
11921;SDS011;6021;51.182;3.160;2023-07-22T06:17:55;11.23;;;7.63;;
11921;SDS011;6021;51.182;3.160;2023-07-22T06:20:23;14.63;;;7.67;;
11921;SDS011;6021;51.182;3.160;2023-07-22T06:22:52;14.53;;;7.67;;
11921;SDS011;6021;51.182;3.160;2023-07-22T06:25:21;12.40;;;7.67;;
11921;SDS011;6021;51.182;3.160;2023-07-22T06:27:49;11.73;;;7.20;;
11921;SDS011;6021;51.182;3.160;2023-07-22T06:30:20;10.30;;;6.70;;
11921;SDS011;6021;51.182;3.160;2023-07-22T06:32:49;8.57;;;6.40;;
11921;SDS011;6021;51.182;3.160;2023-07-22T06:35:17;8.67;;;6.50;;
11921;SDS011;6021;51.182;3.160;2023-07-22T06:37:45;8.53;;;6.33;;
11921;SDS011;6021;51.182;3.160;2023-07-22T06:40:14;11.73;;;6.00;;
11921;SDS011;6021;51.182;3.160;2023-07-22T06:42:43;10.83;;;6.17;;
11921;SDS011;6021;51.182;3.160;2023-07-22T06:45:12;12.47;;;6.33;;
11921;SDS011;6021;51.182;3.160;2023-07-22T06:47:40;10.30;;;6.57;;
11921;SDS011;6021;51.182;3.160;2023-07-22T06:50:10;12.00;;;6.73;;
11921;SDS011;6021;51.182;3.160;2023-07-22T06:52:38;9.00;;;5.80;;
11921;SDS011;6021;51.182;3.160;2023-07-22T06:55:07;11.00;;;6.70;;
11921;SDS011;6021;51.182;3.160;2023-07-22T06:57:36;13.37;;;6.73;;
11921;SDS011;6021;51.182;3.160;2023-07-22T07:00:05;13.83;;;7.30;;
11921;SDS011;6021;51.182;3.160;2023-07-22T07:02:35;13.87;;;7.20;;
11921;SDS011;6021;51.182;3.160;2023-07-22T07:05:03;8.43;;;6.00;;
11921;SDS011;6021;51.182;3.160;2023-07-22T07:07:32;12.83;;;7.07;;
11921;SDS011;6021;51.182;3.160;2023-07-22T07:10:01;10.60;;;6.80;;
11921;SDS011;6021;51.182;3.160;2023-07-22T07:12:29;13.40;;;7.30;;
11921;SDS011;6021;51.182;3.160;2023-07-22T07:14:57;13.00;;;6.67;;
11921;SDS011;6021;51.182;3.160;2023-07-22T07:17:26;11.73;;;6.70;;
11921;SDS011;6021;51.182;3.160;2023-07-22T07:19:54;10.43;;;6.87;;
11921;SDS011;6021;51.182;3.160;2023-07-22T07:22:22;12.13;;;7.50;;
11921;SDS011;6021;51.182;3.160;2023-07-22T07:24:51;12.47;;;7.67;;
11921;SDS011;6021;51.182;3.160;2023-07-22T07:27:19;11.23;;;7.07;;
11921;SDS011;6021;51.182;3.160;2023-07-22T07:29:47;12.27;;;6.80;;
11921;SDS011;6021;51.182;3.160;2023-07-22T07:32:16;10.97;;;6.80;;
11921;SDS011;6021;51.182;3.160;2023-07-22T07:34:44;12.27;;;6.80;;
11921;SDS011;6021;51.182;3.160;2023-07-22T07:37:17;10.40;;;6.70;;
11921;SDS011;6021;51.182;3.160;2023-07-22T07:39:42;11.07;;;6.20;;
11921;SDS011;6021;51.182;3.160;2023-07-22T07:42:11;10.13;;;6.57;;
11921;SDS011;6021;51.182;3.160;2023-07-22T07:44:39;11.23;;;6.60;;
11921;SDS011;6021;51.182;3.160;2023-07-22T07:47:07;9.87;;;5.73;;
11921;SDS011;6021;51.182;3.160;2023-07-22T07:49:36;9.67;;;6.10;;
11921;SDS011;6021;51.182;3.160;2023-07-22T07:52:05;8.93;;;5.40;;
11921;SDS011;6021;51.182;3.160;2023-07-22T07:54:33;10.47;;;5.60;;
11921;SDS011;6021;51.182;3.160;2023-07-22T07:57:01;8.67;;;5.50;;
11921;SDS011;6021;51.182;3.160;2023-07-22T07:59:30;9.47;;;5.60;;
11921;SDS011;6021;51.182;3.160;2023-07-22T08:01:58;11.23;;;6.30;;
11921;SDS011;6021;51.182;3.160;2023-07-22T08:04:27;9.47;;;5.67;;
11921;SDS011;6021;51.182;3.160;2023-07-22T08:06:55;10.90;;;5.90;;
11921;SDS011;6021;51.182;3.160;2023-07-22T08:09:24;7.70;;;5.00;;
11921;SDS011;6021;51.182;3.160;2023-07-22T08:11:52;11.57;;;5.77;;
11921;SDS011;6021;51.182;3.160;2023-07-22T08:14:21;8.87;;;5.30;;
11921;SDS011;6021;51.182;3.160;2023-07-22T08:16:49;9.30;;;5.13;;
11921;SDS011;6021;51.182;3.160;2023-07-22T08:19:18;9.53;;;4.87;;
11921;SDS011;6021;51.182;3.160;2023-07-22T08:21:46;11.30;;;5.43;;
11921;SDS011;6021;51.182;3.160;2023-07-22T08:24:14;8.07;;;4.40;;
11921;SDS011;6021;51.182;3.160;2023-07-22T08:26:43;6.33;;;4.40;;
11921;SDS011;6021;51.182;3.160;2023-07-22T08:29:11;8.47;;;4.30;;
11921;SDS011;6021;51.182;3.160;2023-07-22T08:31:39;6.07;;;3.73;;
11921;SDS011;6021;51.182;3.160;2023-07-22T08:34:08;9.20;;;4.30;;
11921;SDS011;6021;51.182;3.160;2023-07-22T08:36:36;8.50;;;3.90;;
11921;SDS011;6021;51.182;3.160;2023-07-22T08:39:05;5.40;;;3.67;;
11921;SDS011;6021;51.182;3.160;2023-07-22T08:41:34;6.97;;;3.90;;
11921;SDS011;6021;51.182;3.160;2023-07-22T08:44:04;6.63;;;3.47;;
11921;SDS011;6021;51.182;3.160;2023-07-22T08:46:34;6.63;;;3.63;;
11921;SDS011;6021;51.182;3.160;2023-07-22T08:49:05;6.00;;;3.30;;
11921;SDS011;6021;51.182;3.160;2023-07-22T08:51:36;6.23;;;3.43;;
11921;SDS011;6021;51.182;3.160;2023-07-22T08:54:06;7.40;;;3.53;;
11921;SDS011;6021;51.182;3.160;2023-07-22T08:56:36;6.60;;;3.43;;
11921;SDS011;6021;51.182;3.160;2023-07-22T08:59:06;6.20;;;3.50;;
11921;SDS011;6021;51.182;3.160;2023-07-22T09:01:35;8.07;;;3.73;;
11921;SDS011;6021;51.182;3.160;2023-07-22T09:04:06;5.60;;;3.13;;
11921;SDS011;6021;51.182;3.160;2023-07-22T09:06:35;7.13;;;3.40;;
11921;SDS011;6021;51.182;3.160;2023-07-22T09:09:04;6.13;;;3.03;;
11921;SDS011;6021;51.182;3.160;2023-07-22T09:11:34;4.90;;;3.00;;
11921;SDS011;6021;51.182;3.160;2023-07-22T09:14:03;6.50;;;3.33;;
11921;SDS011;6021;51.182;3.160;2023-07-22T09:16:31;4.33;;;2.90;;
11921;SDS011;6021;51.182;3.160;2023-07-22T09:19:00;5.07;;;3.07;;
11921;SDS011;6021;51.182;3.160;2023-07-22T09:21:31;6.67;;;2.90;;
11921;SDS011;6021;51.182;3.160;2023-07-22T09:24:01;4.43;;;2.73;;
11921;SDS011;6021;51.182;3.160;2023-07-22T09:26:32;3.30;;;2.70;;
11921;SDS011;6021;51.182;3.160;2023-07-22T09:29:00;5.37;;;2.83;;
11921;SDS011;6021;51.182;3.160;2023-07-22T09:31:29;5.13;;;2.60;;
11921;SDS011;6021;51.182;3.160;2023-07-22T09:34:11;5.83;;;2.60;;
11921;SDS011;6021;51.182;3.160;2023-07-22T09:36:57;5.00;;;2.50;;
11921;SDS011;6021;51.182;3.160;2023-07-22T09:39:22;5.83;;;2.80;;
11921;SDS011;6021;51.182;3.160;2023-07-22T09:41:51;2.93;;;2.30;;
11921;SDS011;6021;51.182;3.160;2023-07-22T09:44:20;3.47;;;2.50;;
11921;SDS011;6021;51.182;3.160;2023-07-22T09:46:48;4.20;;;2.53;;
11921;SDS011;6021;51.182;3.160;2023-07-22T09:49:17;4.03;;;2.67;;
11921;SDS011;6021;51.182;3.160;2023-07-22T09:51:46;5.00;;;2.80;;
11921;SDS011;6021;51.182;3.160;2023-07-22T09:54:16;4.80;;;2.70;;
11921;SDS011;6021;51.182;3.160;2023-07-22T09:56:49;3.33;;;2.43;;
11921;SDS011;6021;51.182;3.160;2023-07-22T09:59:17;6.83;;;2.70;;
11921;SDS011;6021;51.182;3.160;2023-07-22T10:01:49;3.13;;;2.30;;
11921;SDS011;6021;51.182;3.160;2023-07-22T10:04:18;3.90;;;2.67;;
11921;SDS011;6021;51.182;3.160;2023-07-22T10:06:49;5.47;;;2.80;;
11921;SDS011;6021;51.182;3.160;2023-07-22T10:09:18;4.47;;;2.93;;
11921;SDS011;6021;51.182;3.160;2023-07-22T10:11:49;4.47;;;2.70;;
11921;SDS011;6021;51.182;3.160;2023-07-22T10:14:17;4.33;;;2.50;;
11921;SDS011;6021;51.182;3.160;2023-07-22T10:16:46;3.70;;;2.53;;
11921;SDS011;6021;51.182;3.160;2023-07-22T10:19:14;4.10;;;2.67;;
11921;SDS011;6021;51.182;3.160;2023-07-22T10:21:45;4.93;;;2.53;;
11921;SDS011;6021;51.182;3.160;2023-07-22T10:24:13;4.57;;;2.60;;
11921;SDS011;6021;51.182;3.160;2023-07-22T10:26:42;3.13;;;2.13;;
11921;SDS011;6021;51.182;3.160;2023-07-22T10:29:12;3.33;;;2.10;;
11921;SDS011;6021;51.182;3.160;2023-07-22T10:31:41;4.03;;;2.03;;
11921;SDS011;6021;51.182;3.160;2023-07-22T10:34:09;4.33;;;2.27;;
11921;SDS011;6021;51.182;3.160;2023-07-22T10:36:38;4.03;;;2.33;;
11921;SDS011;6021;51.182;3.160;2023-07-22T10:39:06;5.13;;;2.17;;
11921;SDS011;6021;51.182;3.160;2023-07-22T10:41:34;3.03;;;2.13;;
11921;SDS011;6021;51.182;3.160;2023-07-22T10:44:06;5.87;;;2.60;;
11921;SDS011;6021;51.182;3.160;2023-07-22T10:46:39;2.83;;;1.97;;
11921;SDS011;6021;51.182;3.160;2023-07-22T10:49:09;4.07;;;1.97;;
11921;SDS011;6021;51.182;3.160;2023-07-22T10:51:39;4.37;;;2.30;;
11921;SDS011;6021;51.182;3.160;2023-07-22T10:54:31;5.40;;;2.20;;
11921;SDS011;6021;51.182;3.160;2023-07-22T10:56:42;3.97;;;2.20;;
11921;SDS011;6021;51.182;3.160;2023-07-22T10:59:11;3.40;;;2.00;;
11921;SDS011;6021;51.182;3.160;2023-07-22T11:01:43;4.30;;;2.10;;
11921;SDS011;6021;51.182;3.160;2023-07-22T11:14:45;5.93;;;2.53;;
11921;SDS011;6021;51.182;3.160;2023-07-22T11:17:14;3.20;;;2.13;;
11921;SDS011;6021;51.182;3.160;2023-07-22T11:19:44;4.33;;;2.17;;
11921;SDS011;6021;51.182;3.160;2023-07-22T11:22:12;3.57;;;2.20;;
11921;SDS011;6021;51.182;3.160;2023-07-22T11:24:41;3.30;;;2.27;;
11921;SDS011;6021;51.182;3.160;2023-07-22T11:27:10;9.20;;;2.40;;
11921;SDS011;6021;51.182;3.160;2023-07-22T11:29:39;6.83;;;2.40;;
11921;SDS011;6021;51.182;3.160;2023-07-22T11:32:14;17.63;;;2.60;;
11921;SDS011;6021;51.182;3.160;2023-07-22T11:34:50;5.53;;;2.60;;
11921;SDS011;6021;51.182;3.160;2023-07-22T11:37:22;6.70;;;2.50;;
11921;SDS011;6021;51.182;3.160;2023-07-22T11:39:50;4.13;;;2.23;;
11921;SDS011;6021;51.182;3.160;2023-07-22T11:42:18;4.90;;;2.30;;
11921;SDS011;6021;51.182;3.160;2023-07-22T11:44:47;3.43;;;2.50;;
11921;SDS011;6021;51.182;3.160;2023-07-22T11:47:15;3.93;;;2.30;;
11921;SDS011;6021;51.182;3.160;2023-07-22T11:49:47;5.57;;;2.40;;
11921;SDS011;6021;51.182;3.160;2023-07-22T11:52:16;4.57;;;2.57;;
11921;SDS011;6021;51.182;3.160;2023-07-22T11:54:46;4.67;;;2.47;;
11921;SDS011;6021;51.182;3.160;2023-07-22T11:57:15;3.30;;;2.30;;
11921;SDS011;6021;51.182;3.160;2023-07-22T11:59:45;4.43;;;2.23;;
11921;SDS011;6021;51.182;3.160;2023-07-22T12:02:20;4.77;;;2.20;;
11921;SDS011;6021;51.182;3.160;2023-07-22T12:05:03;4.37;;;2.33;;
11921;SDS011;6021;51.182;3.160;2023-07-22T12:07:32;3.17;;;2.10;;
11921;SDS011;6021;51.182;3.160;2023-07-22T12:10:05;4.07;;;2.20;;
11921;SDS011;6021;51.182;3.160;2023-07-22T12:12:39;3.03;;;2.20;;
11921;SDS011;6021;51.182;3.160;2023-07-22T12:15:09;4.00;;;2.10;;
11921;SDS011;6021;51.182;3.160;2023-07-22T12:17:48;3.77;;;2.10;;
11921;SDS011;6021;51.182;3.160;2023-07-22T12:20:25;4.53;;;1.80;;
11921;SDS011;6021;51.182;3.160;2023-07-22T12:22:55;3.23;;;1.70;;
11921;SDS011;6021;51.182;3.160;2023-07-22T12:25:24;3.40;;;1.73;;
11921;SDS011;6021;51.182;3.160;2023-07-22T12:27:53;2.77;;;1.83;;
11921;SDS011;6021;51.182;3.160;2023-07-22T12:30:22;3.93;;;1.80;;
11921;SDS011;6021;51.182;3.160;2023-07-22T12:32:50;3.40;;;1.70;;
11921;SDS011;6021;51.182;3.160;2023-07-22T12:35:18;2.87;;;1.60;;
11921;SDS011;6021;51.182;3.160;2023-07-22T12:37:50;2.43;;;1.80;;
11921;SDS011;6021;51.182;3.160;2023-07-22T12:40:18;3.13;;;1.70;;
11921;SDS011;6021;51.182;3.160;2023-07-22T12:42:47;2.80;;;1.67;;
11921;SDS011;6021;51.182;3.160;2023-07-22T12:45:15;3.87;;;1.67;;
11921;SDS011;6021;51.182;3.160;2023-07-22T12:47:44;2.60;;;1.63;;
11921;SDS011;6021;51.182;3.160;2023-07-22T12:50:12;3.00;;;1.60;;
11921;SDS011;6021;51.182;3.160;2023-07-22T12:52:40;2.80;;;1.60;;
11921;SDS011;6021;51.182;3.160;2023-07-22T12:55:12;4.90;;;1.70;;
11921;SDS011;6021;51.182;3.160;2023-07-22T12:57:43;2.57;;;1.60;;
11921;SDS011;6021;51.182;3.160;2023-07-22T13:00:12;3.00;;;1.57;;
11921;SDS011;6021;51.182;3.160;2023-07-22T13:02:41;4.50;;;1.80;;
11921;SDS011;6021;51.182;3.160;2023-07-22T13:05:10;2.13;;;1.53;;
11921;SDS011;6021;51.182;3.160;2023-07-22T13:07:38;1.90;;;1.67;;
11921;SDS011;6021;51.182;3.160;2023-07-22T13:10:06;4.63;;;1.87;;
11921;SDS011;6021;51.182;3.160;2023-07-22T13:12:37;3.57;;;1.60;;
11921;SDS011;6021;51.182;3.160;2023-07-22T13:15:05;2.17;;;1.77;;
11921;SDS011;6021;51.182;3.160;2023-07-22T13:17:34;2.87;;;1.77;;
11921;SDS011;6021;51.182;3.160;2023-07-22T13:20:06;3.10;;;1.93;;
11921;SDS011;6021;51.182;3.160;2023-07-22T13:22:35;2.70;;;2.00;;
11921;SDS011;6021;51.182;3.160;2023-07-22T13:25:04;3.47;;;2.00;;
11921;SDS011;6021;51.182;3.160;2023-07-22T13:27:32;3.50;;;2.30;;
11921;SDS011;6021;51.182;3.160;2023-07-22T13:30:01;3.77;;;2.20;;
11921;SDS011;6021;51.182;3.160;2023-07-22T13:32:29;2.30;;;2.10;;
11921;SDS011;6021;51.182;3.160;2023-07-22T13:34:58;2.67;;;2.00;;
11921;SDS011;6021;51.182;3.160;2023-07-22T13:37:26;4.53;;;2.13;;
11921;SDS011;6021;51.182;3.160;2023-07-22T13:39:54;4.10;;;2.30;;
11921;SDS011;6021;51.182;3.160;2023-07-22T13:42:24;4.43;;;2.30;;
11921;SDS011;6021;51.182;3.160;2023-07-22T13:44:52;3.53;;;2.23;;
11921;SDS011;6021;51.182;3.160;2023-07-22T13:47:21;3.27;;;2.20;;
11921;SDS011;6021;51.182;3.160;2023-07-22T13:49:49;3.40;;;2.00;;
11921;SDS011;6021;51.182;3.160;2023-07-22T13:52:18;3.60;;;1.83;;
11921;SDS011;6021;51.182;3.160;2023-07-22T13:54:46;4.07;;;2.00;;
11921;SDS011;6021;51.182;3.160;2023-07-22T13:57:14;5.07;;;1.83;;
11921;SDS011;6021;51.182;3.160;2023-07-22T13:59:43;3.40;;;1.80;;
11921;SDS011;6021;51.182;3.160;2023-07-22T14:02:11;2.33;;;1.60;;
11921;SDS011;6021;51.182;3.160;2023-07-22T14:04:40;3.70;;;1.80;;
11921;SDS011;6021;51.182;3.160;2023-07-22T14:07:08;3.13;;;1.97;;
11921;SDS011;6021;51.182;3.160;2023-07-22T14:09:37;3.27;;;1.80;;
11921;SDS011;6021;51.182;3.160;2023-07-22T14:12:05;3.00;;;1.80;;
11921;SDS011;6021;51.182;3.160;2023-07-22T14:14:34;2.40;;;1.80;;
11921;SDS011;6021;51.182;3.160;2023-07-22T14:17:02;3.37;;;1.60;;
11921;SDS011;6021;51.182;3.160;2023-07-22T14:19:31;2.37;;;1.80;;
11921;SDS011;6021;51.182;3.160;2023-07-22T14:21:59;3.77;;;2.00;;
11921;SDS011;6021;51.182;3.160;2023-07-22T14:24:28;3.40;;;2.10;;
11921;SDS011;6021;51.182;3.160;2023-07-22T14:26:57;3.47;;;1.90;;
11921;SDS011;6021;51.182;3.160;2023-07-22T14:29:25;4.43;;;2.00;;
11921;SDS011;6021;51.182;3.160;2023-07-22T14:31:55;3.23;;;2.20;;
11921;SDS011;6021;51.182;3.160;2023-07-22T14:34:24;3.97;;;2.10;;
11921;SDS011;6021;51.182;3.160;2023-07-22T14:36:53;4.47;;;2.40;;
11921;SDS011;6021;51.182;3.160;2023-07-22T14:39:22;4.53;;;2.20;;
11921;SDS011;6021;51.182;3.160;2023-07-22T14:41:50;3.70;;;2.00;;
11921;SDS011;6021;51.182;3.160;2023-07-22T14:44:19;2.37;;;2.00;;
11921;SDS011;6021;51.182;3.160;2023-07-22T14:46:47;2.17;;;1.97;;
11921;SDS011;6021;51.182;3.160;2023-07-22T14:49:16;4.80;;;2.37;;
11921;SDS011;6021;51.182;3.160;2023-07-22T14:51:44;3.90;;;2.10;;
11921;SDS011;6021;51.182;3.160;2023-07-22T14:54:12;3.70;;;2.00;;
11921;SDS011;6021;51.182;3.160;2023-07-22T14:56:41;4.00;;;2.03;;
11921;SDS011;6021;51.182;3.160;2023-07-22T14:59:09;3.77;;;1.90;;
11921;SDS011;6021;51.182;3.160;2023-07-22T15:01:38;3.17;;;1.90;;
11921;SDS011;6021;51.182;3.160;2023-07-22T15:04:07;2.90;;;2.00;;
11921;SDS011;6021;51.182;3.160;2023-07-22T15:06:36;4.03;;;1.97;;
11921;SDS011;6021;51.182;3.160;2023-07-22T15:09:04;2.20;;;1.97;;
11921;SDS011;6021;51.182;3.160;2023-07-22T15:11:36;4.10;;;2.00;;